createdAt,value
2022-08-20T00:01:44.456Z,23.85
2022-08-20T00:04:12.832Z,23.82
2022-08-20T00:06:41.874Z,23.69
2022-08-20T00:09:11.370Z,23.74
2022-08-20T00:11:39.362Z,23.73
2022-08-20T00:14:08.288Z,23.58
2022-08-20T00:16:38.891Z,23.71
2022-08-20T00:19:09.425Z,23.79
2022-08-20T00:21:38.014Z,23.86
2022-08-20T00:24:06.650Z,23.91
2022-08-20T00:26:36.054Z,23.89
2022-08-20T00:29:05.322Z,23.88
2022-08-20T00:31:33.377Z,23.88
2022-08-20T00:34:01.497Z,23.72
2022-08-20T00:36:32.244Z,23.75
2022-08-20T00:39:01.766Z,23.73
2022-08-20T00:41:31.082Z,23.77
2022-08-20T00:44:11.025Z,23.76
2022-08-20T00:46:40.739Z,23.67
2022-08-20T00:49:22.284Z,23.67
2022-08-20T00:51:53.657Z,23.62
2022-08-20T00:54:25.751Z,23.63
2022-08-20T00:56:58.838Z,23.57
2022-08-20T00:59:31.150Z,23.51
2022-08-20T01:02:01.192Z,23.45
2022-08-20T01:04:33.765Z,23.47
2022-08-20T01:07:02.089Z,23.40
2022-08-20T01:09:49.629Z,23.28
2022-08-20T01:12:19.539Z,23.20
2022-08-20T01:14:49.108Z,23.11
2022-08-20T01:17:22.284Z,23.19
2022-08-20T01:19:55.580Z,23.21
2022-08-20T01:22:47.250Z,23.15
2022-08-20T01:25:23.893Z,23.24
2022-08-20T01:27:55.520Z,23.25
2022-08-20T01:30:26.111Z,23.33
2022-08-20T01:32:54.227Z,23.41
2022-08-20T01:35:23.465Z,23.45
2022-08-20T01:37:51.583Z,23.49
2022-08-20T01:40:45.855Z,23.49
2022-08-20T01:43:15.729Z,23.48
2022-08-20T01:45:45.344Z,23.50
2022-08-20T01:48:17.631Z,23.49
2022-08-20T01:50:55.518Z,23.47
2022-08-20T01:53:29.819Z,23.46
2022-08-20T01:55:57.856Z,23.44
2022-08-20T01:58:29.738Z,23.40
2022-08-20T02:00:58.068Z,23.26
2022-08-20T02:03:26.410Z,23.32
2022-08-20T02:05:54.594Z,23.30
2022-08-20T02:08:23.725Z,23.31
2022-08-20T02:10:51.785Z,23.31
2022-08-20T02:13:20.010Z,23.23
2022-08-20T02:15:49.578Z,22.94
2022-08-20T02:18:17.850Z,22.93
2022-08-20T02:20:46.836Z,22.89
2022-08-20T02:23:15.717Z,22.92
2022-08-20T02:25:47.498Z,22.90
2022-08-20T02:28:19.495Z,22.88
2022-08-20T02:30:51.494Z,22.88
2022-08-20T02:33:24.114Z,22.90
2022-08-20T02:35:56.553Z,22.91
2022-08-20T02:38:25.036Z,22.85
2022-08-20T02:40:53.096Z,22.80
2022-08-20T02:43:21.676Z,22.77
2022-08-20T02:45:51.705Z,22.73
2022-08-20T02:48:23.179Z,22.67
2022-08-20T02:50:54.856Z,22.58
2022-08-20T02:53:23.554Z,22.53
2022-08-20T02:55:52.033Z,22.51
2022-08-20T02:58:21.334Z,22.43
2022-08-20T03:00:51.727Z,22.48
2022-08-20T03:03:22.917Z,22.47
2022-08-20T03:05:54.492Z,22.43
2022-08-20T03:08:23.879Z,22.39
2022-08-20T03:10:52.584Z,22.31
2022-08-20T03:13:21.694Z,22.32
2022-08-20T03:15:57.914Z,22.33
2022-08-20T03:18:27.948Z,22.31
2022-08-20T03:20:56.022Z,22.25
2022-08-20T03:23:24.122Z,22.22
2022-08-20T03:25:52.137Z,22.16
2022-08-20T03:28:20.441Z,22.15
2022-08-20T03:30:51.619Z,22.05
2022-08-20T03:33:20.493Z,22.06
2022-08-20T03:35:48.968Z,22.02
2022-08-20T03:38:20.743Z,22.00
2022-08-20T03:41:00.914Z,21.96
2022-08-20T03:43:28.954Z,21.91
2022-08-20T03:45:58.285Z,21.88
2022-08-20T03:48:26.473Z,21.89
2022-08-20T03:50:56.712Z,21.87
2022-08-20T03:53:24.786Z,21.82
2022-08-20T03:55:59.318Z,21.79
2022-08-20T03:58:34.842Z,21.73
2022-08-20T04:01:07.789Z,21.76
2022-08-20T04:03:58.762Z,21.73
2022-08-20T04:06:27.855Z,21.79
2022-08-20T04:08:56.394Z,21.80
2022-08-20T04:11:24.860Z,21.85
2022-08-20T04:13:52.968Z,21.88
2022-08-20T04:16:23.855Z,21.92
2022-08-20T04:18:56.255Z,21.95
2022-08-20T04:21:30.961Z,22.01
2022-08-20T04:24:01.634Z,22.09
2022-08-20T04:26:29.740Z,22.20
2022-08-20T04:28:57.781Z,22.35
2022-08-20T04:31:33.610Z,22.49
2022-08-20T04:34:02.373Z,22.62
2022-08-20T04:36:30.792Z,22.74
2022-08-20T04:38:58.852Z,22.95
2022-08-20T04:41:26.836Z,23.07
2022-08-20T04:43:56.500Z,23.25
2022-08-20T04:46:29.021Z,23.43
2022-08-20T04:48:58.350Z,23.58
2022-08-20T04:51:27.061Z,23.77
2022-08-20T04:53:56.466Z,23.92
2022-08-20T04:56:27.090Z,24.09
2022-08-20T04:58:57.507Z,24.22
2022-08-20T05:01:27.707Z,24.41
2022-08-20T05:03:57.233Z,24.58
2022-08-20T05:06:28.704Z,24.79
2022-08-20T05:08:59.111Z,24.94
2022-08-20T05:11:34.881Z,25.05
2022-08-20T05:14:07.748Z,25.09
2022-08-20T05:16:40.669Z,25.24
2022-08-20T05:19:11.349Z,25.43
2022-08-20T05:21:39.918Z,25.61
2022-08-20T05:24:08.650Z,25.69
2022-08-20T05:26:36.860Z,25.90
2022-08-20T05:29:06.842Z,26.06
2022-08-20T05:31:35.705Z,26.13
2022-08-20T05:34:10.034Z,26.35
2022-08-20T05:36:40.212Z,26.46
2022-08-20T05:39:08.995Z,26.59
2022-08-20T05:41:37.903Z,26.70
2022-08-20T05:44:10.067Z,26.90
2022-08-20T05:46:40.561Z,27.05
2022-08-20T05:49:11.094Z,27.21
2022-08-20T05:51:39.406Z,27.42
2022-08-20T05:54:08.266Z,27.56
2022-08-20T05:56:37.299Z,27.45
2022-08-20T05:59:07.456Z,27.68
2022-08-20T06:01:38.883Z,27.93
2022-08-20T06:04:24.929Z,28.07
2022-08-20T06:06:55.857Z,28.22
2022-08-20T06:09:30.753Z,28.45
2022-08-20T06:12:00.695Z,28.55
2022-08-20T06:14:28.705Z,28.57
2022-08-20T06:16:57.680Z,28.99
2022-08-20T06:19:27.257Z,28.46
2022-08-20T06:22:02.530Z,28.67
2022-08-20T06:24:45.937Z,28.87
2022-08-20T06:27:16.037Z,29.18
2022-08-20T06:29:44.137Z,29.24
2022-08-20T06:32:12.169Z,29.43
2022-08-20T06:34:50.293Z,29.28
2022-08-20T06:37:22.736Z,29.46
2022-08-20T06:39:51.705Z,29.70
2022-08-20T06:42:22.600Z,29.66
2022-08-20T06:44:51.308Z,29.89
2022-08-20T06:47:20.601Z,30.13
2022-08-20T06:49:49.698Z,30.26
2022-08-20T06:52:18.270Z,30.39
2022-08-20T06:54:47.779Z,30.60
2022-08-20T06:57:16.006Z,30.73
2022-08-20T06:59:44.054Z,30.81
2022-08-20T07:02:17.208Z,30.77
2022-08-20T07:04:45.658Z,31.15
2022-08-20T07:07:18.583Z,31.25
2022-08-20T07:09:48.057Z,31.19
2022-08-20T07:12:16.041Z,31.40
2022-08-20T07:14:44.039Z,31.46
2022-08-20T07:17:12.569Z,31.62
2022-08-20T07:19:40.653Z,31.63
2022-08-20T07:22:09.106Z,31.87
2022-08-20T07:24:41.141Z,32.00
2022-08-20T07:27:11.260Z,32.14
2022-08-20T07:29:56.594Z,32.03
2022-08-20T07:32:39.512Z,31.62
2022-08-20T07:35:08.995Z,31.93
2022-08-20T07:37:40.034Z,32.25
2022-08-20T07:40:09.826Z,32.33
2022-08-20T07:42:40.643Z,32.67
2022-08-20T07:45:10.982Z,32.79
2022-08-20T07:47:39.566Z,32.85
2022-08-20T07:50:09.190Z,33.04
2022-08-20T07:52:37.326Z,33.15
2022-08-20T07:55:07.036Z,33.33
2022-08-20T07:57:35.244Z,33.24
2022-08-20T08:00:05.845Z,33.41
2022-08-20T08:02:34.246Z,33.67
2022-08-20T08:05:02.843Z,33.93
2022-08-20T08:07:31.072Z,34.15
2022-08-20T08:09:59.715Z,34.04
2022-08-20T08:12:35.093Z,34.18
2022-08-20T08:15:05.410Z,34.23
2022-08-20T08:17:34.370Z,34.21
2022-08-20T08:20:02.522Z,33.97
2022-08-20T08:22:31.771Z,34.03
2022-08-20T08:25:02.524Z,33.97
2022-08-20T08:27:32.848Z,34.39
2022-08-20T08:30:00.970Z,34.28
2022-08-20T08:32:31.506Z,34.54
2022-08-20T08:34:59.693Z,34.61
2022-08-20T08:37:30.677Z,34.56
2022-08-20T08:39:59.121Z,34.65
2022-08-20T08:42:38.958Z,34.83
2022-08-20T08:45:11.626Z,34.96
2022-08-20T08:47:41.580Z,35.12
2022-08-20T08:50:28.635Z,35.04
2022-08-20T08:53:08.608Z,34.95
2022-08-20T08:55:38.706Z,35.25
2022-08-20T08:58:17.397Z,35.48
2022-08-20T09:00:52.719Z,35.47
2022-08-20T09:03:29.975Z,35.21
2022-08-20T09:06:01.634Z,35.38
2022-08-20T09:08:34.362Z,35.38
2022-08-20T09:11:04.510Z,35.43
2022-08-20T09:13:32.614Z,35.90
2022-08-20T09:16:01.085Z,35.82
2022-08-20T09:18:30.512Z,35.34
2022-08-20T09:20:58.525Z,35.63
2022-08-20T09:23:26.563Z,35.80
2022-08-20T09:25:54.962Z,35.67
2022-08-20T09:28:23.078Z,35.75
2022-08-20T09:30:52.602Z,36.01
2022-08-20T09:33:20.785Z,36.31
2022-08-20T09:35:50.823Z,36.24
2022-08-20T09:38:18.929Z,36.23
2022-08-20T09:40:46.970Z,36.41
2022-08-20T09:43:15.246Z,36.62
2022-08-20T09:45:43.270Z,36.70
2022-08-20T09:48:11.287Z,36.41
2022-08-20T09:50:45.314Z,36.17
2022-08-20T09:53:16.190Z,36.01
2022-08-20T09:55:46.347Z,36.42
2022-08-20T09:58:22.174Z,36.59
2022-08-20T10:00:50.681Z,36.89
2022-08-20T10:03:19.146Z,37.01
2022-08-20T10:05:47.424Z,36.71
2022-08-20T10:08:17.041Z,36.75
2022-08-20T10:10:45.258Z,36.37
2022-08-20T10:13:15.481Z,35.72
2022-08-20T10:15:43.631Z,35.64
2022-08-20T10:18:12.576Z,35.72
2022-08-20T10:20:40.753Z,35.72
2022-08-20T10:23:08.981Z,35.89
2022-08-20T10:25:38.571Z,35.91
2022-08-20T10:28:07.115Z,35.52
2022-08-20T10:30:36.028Z,35.71
2022-08-20T10:33:04.154Z,35.80
2022-08-20T10:35:32.714Z,35.94
2022-08-20T10:38:00.849Z,35.77
2022-08-20T10:40:29.200Z,35.59
2022-08-20T10:42:58.847Z,35.47
2022-08-20T10:45:26.930Z,35.55
2022-08-20T10:47:55.060Z,35.70
2022-08-20T10:50:23.089Z,35.77
2022-08-20T10:52:51.110Z,35.71
2022-08-20T10:55:19.372Z,35.52
2022-08-20T10:57:47.527Z,35.47
2022-08-20T11:00:19.680Z,35.62
2022-08-20T11:02:48.158Z,35.75
2022-08-20T11:05:16.276Z,35.84
2022-08-20T11:07:50.823Z,35.87
2022-08-20T11:10:26.467Z,35.78
2022-08-20T11:12:54.725Z,35.78
2022-08-20T11:15:24.897Z,35.68
2022-08-20T11:17:53.714Z,35.25
2022-08-20T11:20:25.262Z,35.21
2022-08-20T11:22:53.638Z,35.36
2022-08-20T11:25:22.305Z,35.71
2022-08-20T11:27:52.560Z,35.96
2022-08-20T11:30:26.670Z,36.08
2022-08-20T11:32:54.806Z,36.13
2022-08-20T11:35:48.328Z,36.14
2022-08-20T11:38:14.803Z,35.74
2022-08-20T11:40:42.781Z,35.26
2022-08-20T11:43:15.388Z,35.08
2022-08-20T11:45:46.829Z,34.84
2022-08-20T11:48:15.426Z,35.02
2022-08-20T11:50:43.753Z,35.26
2022-08-20T11:53:12.130Z,35.25
2022-08-20T11:55:40.370Z,35.30
2022-08-20T11:58:08.936Z,35.38
2022-08-20T12:00:37.676Z,35.59
2022-08-20T12:03:10.405Z,35.49
2022-08-20T12:05:41.161Z,35.39
2022-08-20T12:08:09.654Z,35.15
2022-08-20T12:10:39.063Z,35.08
2022-08-20T12:13:08.272Z,35.21
2022-08-20T12:15:37.522Z,35.37
2022-08-20T12:18:09.736Z,35.49
2022-08-20T12:20:38.326Z,35.49
2022-08-20T12:23:06.661Z,35.38
2022-08-20T12:25:35.068Z,35.12
2022-08-20T12:28:05.216Z,35.01
2022-08-20T12:30:34.462Z,35.05
2022-08-20T12:33:02.722Z,35.27
2022-08-20T12:35:32.437Z,35.37
2022-08-20T12:38:04.248Z,35.39
2022-08-20T12:40:34.026Z,35.49
2022-08-20T12:43:02.725Z,35.28
2022-08-20T12:45:32.185Z,35.30
2022-08-20T12:48:05.762Z,35.34
2022-08-20T12:50:36.561Z,35.32
2022-08-20T12:53:05.682Z,35.04
2022-08-20T12:55:34.649Z,35.00
2022-08-20T12:58:04.612Z,35.14
2022-08-20T13:00:34.898Z,34.87
2022-08-20T13:03:05.024Z,35.04
2022-08-20T13:05:35.945Z,35.06
2022-08-20T13:08:07.911Z,35.03
2022-08-20T13:10:42.485Z,34.94
2022-08-20T13:13:10.777Z,34.62
2022-08-20T13:15:39.412Z,34.38
2022-08-20T13:18:08.086Z,34.54
2022-08-20T13:20:38.187Z,34.66
2022-08-20T13:23:07.005Z,34.67
2022-08-20T13:25:35.594Z,34.62
2022-08-20T13:28:05.771Z,34.52
2022-08-20T13:30:37.431Z,34.59
2022-08-20T13:33:05.747Z,34.23
2022-08-20T13:35:34.845Z,34.24
2022-08-20T13:38:04.785Z,34.27
2022-08-20T13:40:33.012Z,34.27
2022-08-20T13:43:06.162Z,34.18
2022-08-20T13:45:35.835Z,34.16
2022-08-20T13:48:04.575Z,34.15
2022-08-20T13:50:35.803Z,33.92
2022-08-20T13:53:05.751Z,33.83
2022-08-20T13:55:38.597Z,33.88
2022-08-20T13:58:08.937Z,33.74
2022-08-20T14:00:37.754Z,33.80
2022-08-20T14:03:07.453Z,33.78
2022-08-20T14:05:37.049Z,33.71
2022-08-20T14:08:13.635Z,33.75
2022-08-20T14:10:42.944Z,33.93
2022-08-20T14:13:15.339Z,33.69
2022-08-20T14:15:43.758Z,33.64
2022-08-20T14:18:12.100Z,33.59
2022-08-20T14:20:40.748Z,33.53
2022-08-20T14:23:10.771Z,33.56
2022-08-20T14:25:39.328Z,33.61
2022-08-20T14:28:12.760Z,33.67
2022-08-20T14:30:41.874Z,33.45
2022-08-20T14:33:10.582Z,33.47
2022-08-20T14:35:38.993Z,33.42
2022-08-20T14:38:08.190Z,33.50
2022-08-20T14:40:38.254Z,33.43
2022-08-20T14:43:06.505Z,33.31
2022-08-20T14:45:34.864Z,33.35
2022-08-20T14:48:03.387Z,33.27
2022-08-20T14:50:34.232Z,33.27
2022-08-20T14:53:03.522Z,33.17
2022-08-20T14:55:36.027Z,32.83
2022-08-20T14:58:09.731Z,33.03
2022-08-20T15:00:38.119Z,32.98
2022-08-20T15:03:06.587Z,33.08
2022-08-20T15:05:35.195Z,33.02
2022-08-20T15:08:10.613Z,32.91
2022-08-20T15:10:40.222Z,32.67
2022-08-20T15:13:10.083Z,32.52
2022-08-20T15:15:39.557Z,32.65
2022-08-20T15:18:08.685Z,32.79
2022-08-20T15:20:38.088Z,32.74
2022-08-20T15:23:06.713Z,32.61
2022-08-20T15:25:37.933Z,32.52
2022-08-20T15:28:08.449Z,32.55
2022-08-20T15:30:39.235Z,32.28
2022-08-20T15:33:07.488Z,32.35
2022-08-20T15:35:35.769Z,32.33
2022-08-20T15:38:04.283Z,32.39
2022-08-20T15:40:33.927Z,32.10
2022-08-20T15:43:04.041Z,32.10
2022-08-20T15:45:33.135Z,32.02
2022-08-20T15:48:09.958Z,32.00
2022-08-20T15:50:57.306Z,31.94
2022-08-20T15:53:31.349Z,31.73
2022-08-20T15:56:05.679Z,31.72
2022-08-20T15:58:40.222Z,31.68
2022-08-20T16:01:25.093Z,31.48
2022-08-20T16:04:29.738Z,31.46
2022-08-20T16:07:03.773Z,31.60
2022-08-20T16:09:44.218Z,31.50
2022-08-20T16:12:17.072Z,31.34
2022-08-20T16:14:49.174Z,31.21
2022-08-20T16:17:23.514Z,31.13
2022-08-20T16:19:59.416Z,31.23
2022-08-20T16:22:30.659Z,31.36
2022-08-20T16:24:59.293Z,31.41
2022-08-20T16:27:35.782Z,31.38
2022-08-20T16:30:07.696Z,31.40
2022-08-20T16:32:41.108Z,31.37
2022-08-20T16:35:29.653Z,31.33
2022-08-20T16:38:04.359Z,31.24
2022-08-20T16:40:36.751Z,31.15
2022-08-20T16:43:07.456Z,30.88
2022-08-20T16:45:43.500Z,31.00
2022-08-20T16:48:17.398Z,30.91
2022-08-20T16:50:57.647Z,30.77
2022-08-20T16:53:27.170Z,30.74
2022-08-20T16:55:57.472Z,30.62
2022-08-20T16:58:26.069Z,30.54
2022-08-20T17:01:08.612Z,30.40
2022-08-20T17:03:39.977Z,30.35
2022-08-20T17:06:20.588Z,30.21
2022-08-20T17:08:51.311Z,30.09
2022-08-20T17:11:25.658Z,29.98
2022-08-20T17:14:05.653Z,29.84
2022-08-20T17:16:36.217Z,29.77
2022-08-20T17:19:15.642Z,29.68
2022-08-20T17:21:45.737Z,29.52
2022-08-20T17:24:24.086Z,29.45
2022-08-20T17:27:00.146Z,29.32
2022-08-20T17:29:31.797Z,29.29
2022-08-20T17:32:02.170Z,29.11
2022-08-20T17:34:32.970Z,29.10
2022-08-20T17:37:08.675Z,29.01
2022-08-20T17:39:46.764Z,28.87
2022-08-20T17:42:18.960Z,28.84
2022-08-20T17:44:55.103Z,28.74
2022-08-20T17:47:33.475Z,28.66
2022-08-20T17:50:04.545Z,28.54
2022-08-20T17:52:43.023Z,28.47
2022-08-20T17:55:13.241Z,28.41
2022-08-20T17:57:45.097Z,28.35
2022-08-20T18:00:17.205Z,28.30
2022-08-20T18:02:45.600Z,28.25
2022-08-20T18:05:20.187Z,28.13
2022-08-20T18:08:03.559Z,28.02
2022-08-20T18:10:35.739Z,27.96
2022-08-20T18:13:16.298Z,27.81
2022-08-20T18:15:51.803Z,27.64
2022-08-20T18:18:29.623Z,27.51
2022-08-20T18:21:30.495Z,27.30
2022-08-20T18:24:05.715Z,27.56
2022-08-20T18:26:41.914Z,27.67
2022-08-20T18:29:13.822Z,27.91
2022-08-20T18:31:46.326Z,28.12
2022-08-20T18:34:17.711Z,28.16
2022-08-20T18:36:56.864Z,28.09
2022-08-20T18:39:28.777Z,28.21
2022-08-20T18:42:00.252Z,28.40
2022-08-20T18:44:31.488Z,28.41
2022-08-20T18:47:02.100Z,28.55
2022-08-20T18:49:33.530Z,28.55
2022-08-20T18:52:11.143Z,28.42
2022-08-20T18:54:44.615Z,28.48
2022-08-20T18:57:22.779Z,28.51
2022-08-20T18:59:58.435Z,28.27
2022-08-20T19:02:32.685Z,28.27
2022-08-20T19:05:05.073Z,28.17
2022-08-20T19:07:47.911Z,28.16
2022-08-20T19:10:48.805Z,28.16
2022-08-20T19:13:46.703Z,28.07
2022-08-20T19:16:20.418Z,27.99
2022-08-20T19:18:51.697Z,27.98
2022-08-20T19:21:24.833Z,27.86
2022-08-20T19:23:55.395Z,27.79
2022-08-20T19:26:31.026Z,27.75
2022-08-20T19:29:01.845Z,27.87
2022-08-20T19:31:32.488Z,27.81
2022-08-20T19:34:20.423Z,27.81
2022-08-20T19:36:56.531Z,27.62
2022-08-20T19:39:26.146Z,27.66
2022-08-20T19:42:00.125Z,27.76
2022-08-20T19:44:40.769Z,27.68
2022-08-20T19:47:19.408Z,27.55
2022-08-20T19:49:58.597Z,27.52
2022-08-20T19:52:38.649Z,27.51
2022-08-20T19:55:16.351Z,27.64
2022-08-20T19:57:53.017Z,27.45
2022-08-20T20:00:22.442Z,27.56
2022-08-20T20:02:50.630Z,27.30
2022-08-20T20:05:19.418Z,27.18
2022-08-20T20:07:50.598Z,27.33
2022-08-20T20:10:32.685Z,27.12
2022-08-20T20:13:10.203Z,27.20
2022-08-20T20:15:39.175Z,27.25
2022-08-20T20:18:07.916Z,27.11
2022-08-20T20:20:55.763Z,26.78
2022-08-20T20:23:28.228Z,26.89
2022-08-20T20:26:18.225Z,26.79
2022-08-20T20:28:50.945Z,26.63
2022-08-20T20:31:24.034Z,26.77
2022-08-20T20:33:55.755Z,26.78
2022-08-20T20:36:35.049Z,26.88
2022-08-20T20:39:11.245Z,26.77
2022-08-20T20:41:52.141Z,26.74
2022-08-20T20:44:24.268Z,26.77
2022-08-20T20:46:56.966Z,26.70
2022-08-20T20:49:27.684Z,26.51
2022-08-20T20:51:59.962Z,26.47
2022-08-20T20:54:31.049Z,26.43
2022-08-20T20:57:03.352Z,26.63
2022-08-20T20:59:37.550Z,26.68
2022-08-20T21:02:06.029Z,26.66
2022-08-20T21:04:34.512Z,26.64
2022-08-20T21:07:08.434Z,26.69
2022-08-20T21:09:39.142Z,26.74
2022-08-20T21:12:08.802Z,26.76
2022-08-20T21:14:38.885Z,26.74
2022-08-20T21:17:09.739Z,26.75
2022-08-20T21:19:40.208Z,26.67
2022-08-20T21:22:13.509Z,26.50
2022-08-20T21:24:41.689Z,26.47
2022-08-20T21:27:12.403Z,26.43
2022-08-20T21:29:42.309Z,26.38
2022-08-20T21:32:12.412Z,26.34
2022-08-20T21:34:43.367Z,26.28
2022-08-20T21:37:12.078Z,26.18
2022-08-20T21:39:40.683Z,26.10
2022-08-20T21:42:28.817Z,26.07
2022-08-20T21:44:59.654Z,26.03
2022-08-20T21:47:28.189Z,25.98
2022-08-20T21:49:56.505Z,25.93
2022-08-20T21:52:24.730Z,25.87
2022-08-20T21:54:53.690Z,25.79
2022-08-20T21:57:24.941Z,25.69
2022-08-20T21:59:53.782Z,25.62
2022-08-20T22:02:25.157Z,25.58
2022-08-20T22:04:54.112Z,25.47
2022-08-20T22:07:23.314Z,25.43
2022-08-20T22:09:51.439Z,25.34
2022-08-20T22:12:23.229Z,25.29
2022-08-20T22:14:51.360Z,25.21
2022-08-20T22:17:19.513Z,25.11
2022-08-20T22:19:49.313Z,25.05
2022-08-20T22:22:24.099Z,24.99
2022-08-20T22:24:52.227Z,24.91
2022-08-20T22:27:20.222Z,24.91
2022-08-20T22:29:48.818Z,24.91
2022-08-20T22:32:16.894Z,24.74
2022-08-20T22:34:45.546Z,24.78
2022-08-20T22:37:16.181Z,24.76
2022-08-20T22:39:44.444Z,24.69
2022-08-20T22:42:12.657Z,24.64
2022-08-20T22:44:41.014Z,24.68
2022-08-20T22:47:10.133Z,24.65
2022-08-20T22:49:41.839Z,24.61
2022-08-20T22:52:12.050Z,24.59
2022-08-20T22:54:44.634Z,24.57
2022-08-20T22:57:13.303Z,24.58
2022-08-20T22:59:45.863Z,24.61
2022-08-20T23:02:19.738Z,24.64
2022-08-20T23:04:48.146Z,24.60
2022-08-20T23:07:20.050Z,24.62
2022-08-20T23:09:49.758Z,24.61
2022-08-20T23:12:17.865Z,24.57
2022-08-20T23:14:45.982Z,24.53
2022-08-20T23:17:19.338Z,24.53
2022-08-20T23:19:49.330Z,24.58
2022-08-20T23:22:17.632Z,24.49
2022-08-20T23:24:46.014Z,24.46
2022-08-20T23:27:19.198Z,24.42
2022-08-20T23:29:47.794Z,24.32
2022-08-20T23:32:15.906Z,24.24
2022-08-20T23:34:44.378Z,24.16
2022-08-20T23:37:13.116Z,24.07
2022-08-20T23:39:41.214Z,24.09
2022-08-20T23:42:11.134Z,24.08
2022-08-20T23:44:40.916Z,24.03
2022-08-20T23:47:09.541Z,24.03
2022-08-20T23:49:37.586Z,23.77
2022-08-20T23:52:05.798Z,23.82
2022-08-20T23:54:34.697Z,23.78
2022-08-20T23:57:02.803Z,23.88
2022-08-20T23:59:36.844Z,23.91
